Ridgebury Julia M — V7IH4 — position and weather

sailwx.info

Track history (hours):
 
Tides and Currents Weather Stations Pressure Air Temp Water Temp Dewpoint Dewpoint Depression Visibility Wind Speed Wind Dir Waves Ship Positions

Ridgebury Julia M

Last reported at 2017-Dec-04 08:43 UTC. Time now 2017-Dec-16 09:19 UTC.
Position N 33°03' W 121°51'.
Warning: this ship's position is 12 days out of date.

Length 180 m; draft 10.2 m.

Type: Tanker. MMSI: 538005939.

Date/timePositionNaut miles runAvg speedWind from/ knotsBaromVisibWave heightAir tempDewpointWater temp
2017-Dec-04 08:43N 33°03' W 121°51'412.2
2017-Dec-04 08:25N 33°07' W 121°52'712.1
2017-Dec-04 07:50N 33°14' W 121°54'412.4
2017-Dec-04 07:30N 33°18' W 121°54'612.3
2017-Dec-04 06:59N 33°24' W 121°55'3412.1
2017-Dec-04 04:10N 33°58' W 122°02'412.2
2017-Dec-04 03:53N 34°01' W 122°03'1812.1
2017-Dec-04 02:22N 34°19' W 122°06'412.3
2017-Dec-04 02:00N 34°24' W 122°07'712.4
2017-Dec-04 01:28N 34°30' W 122°09'712.3
2017-Dec-04 00:57N 34°37' W 122°10'512.4
2017-Dec-04 00:30N 34°42' W 122°11'5812.6
2017-Dec-03 19:54N 35°39' W 122°24'613.1
2017-Dec-03 19:28N 35°45' W 122°25'613.0
2017-Dec-03 19:00N 35°51' W 122°26'612.8
2017-Dec-03 18:30N 35°57' W 122°27'612.8
2017-Dec-03 18:00N 36°03' W 122°28'612.9
2017-Dec-03 17:30N 36°10' W 122°30'713.4
2017-Dec-03 17:00N 36°16' W 122°31'713.3
2017-Dec-03 16:30N 36°23' W 122°33'713.3
2017-Dec-03 16:00N 36°29' W 122°34'713.2
2017-Dec-03 15:30N 36°36' W 122°35'713.2
2017-Dec-03 15:00N 36°43' W 122°37'713.3
2017-Dec-03 14:30N 36°49' W 122°38'3713.2
2017-Dec-03 11:42N 37°26' W 122°44'313.3
2017-Dec-03 11:30N 37°28' W 122°44'613.3
2017-Dec-03 11:00N 37°35' W 122°44'611.9
2017-Dec-03 10:29N 37°41' W 122°42'4 7.6
2017-Dec-03 10:00N 37°44' W 122°40'4 8.8
2017-Dec-03 09:30N 37°47' W 122°35'611.8
2017-Dec-03 09:00N 37°49' W 122°28'4 8.3
2017-Dec-03 08:30N 37°53' W 122°25'4 7.0
2017-Dec-03 08:00N 37°56' W 122°27'4 8.0
2017-Dec-03 07:30N 37°60' W 122°25'4 8.1
2017-Dec-03 07:00N 38°02' W 122°21'4 7.2
2017-Dec-03 06:30N 38°03' W 122°17'1 1.6
2017-Dec-03 06:00N 38°03' W 122°16'0 0.0
2017-Dec-03 04:59N 38°03' W 122°16'0 0.0
2017-Dec-03 04:29N 38°03' W 122°16'0 0.0
2017-Dec-03 03:59N 38°03' W 122°16'0 0.0
2017-Dec-03 01:17N 38°03' W 122°16'0 0.0
2017-Dec-02 23:53N 38°03' W 122°16'0 0.0
2017-Dec-02 23:23N 38°03' W 122°16'0 0.0
2017-Dec-02 22:59N 38°03' W 122°16'0 0.0
2017-Dec-02 20:28N 38°03' W 122°16'0 0.0
2017-Dec-02 19:59N 38°03' W 122°16'0 0.0
2017-Dec-02 19:29N 38°03' W 122°16'0 0.0
2017-Dec-02 18:59N 38°03' W 122°16'0 0.0
2017-Dec-02 18:28N 38°03' W 122°16'0 0.0
2017-Dec-02 17:59N 38°03' W 122°16'0 0.0
2017-Dec-02 17:29N 38°03' W 122°16'0 0.0
2017-Dec-02 16:53N 38°03' W 122°16'0 0.0
2017-Dec-02 16:29N 38°03' W 122°16'0 0.0
2017-Dec-02 15:59N 38°03' W 122°16'0 0.0
2017-Dec-02 15:29N 38°03' W 122°16'0 0.0
2017-Dec-02 14:46N 38°03' W 122°16'0 0.0
2017-Dec-02 14:29N 38°03' W 122°16'0 0.0
2017-Dec-02 13:53N 38°03' W 122°16'0 0.0
2017-Dec-02 13:23N 38°03' W 122°16'0 0.0
2017-Dec-02 12:53N 38°03' W 122°16'0 0.0
2017-Dec-02 12:29N 38°03' W 122°16'0 0.0
2017-Dec-02 11:05N 38°03' W 122°16'0 0.0
2017-Dec-02 10:05N 38°03' W 122°16'0 0.0
2017-Dec-02 09:41N 38°03' W 122°16'0 0.0
2017-Dec-02 09:29N 38°03' W 122°16'0 0.0
2017-Dec-02 08:53N 38°03' W 122°16'0 0.0
2017-Dec-02 08:23N 38°03' W 122°16'0 0.0
2017-Dec-02 07:17N 38°03' W 122°16'0 0.0
2017-Dec-02 06:58N 38°03' W 122°16'0 0.0
2017-Dec-02 06:05N 38°03' W 122°16'0 0.0
2017-Dec-02 05:59N 38°03' W 122°16'0 0.0
2017-Dec-02 05:17N 38°03' W 122°16'0 0.0
2017-Dec-02 04:59N 38°03' W 122°16'0 0.0
2017-Dec-02 04:29N 38°03' W 122°16'0 0.0
2017-Dec-02 03:59N 38°03' W 122°16'0 0.0
2017-Dec-02 03:29N 38°03' W 122°16'0 0.0
2017-Dec-02 02:59N 38°03' W 122°16'0 0.0
2017-Dec-02 01:53N 38°03' W 122°16'0 0.0
2017-Dec-02 01:29N 38°03' W 122°16'0 0.0
2017-Dec-02 00:59N 38°03' W 122°16'0 0.0
2017-Dec-01 23:53N 38°03' W 122°16'0 0.0
2017-Dec-01 20:34N 38°03' W 122°16'0 0.0
2017-Dec-01 19:29N 38°03' W 122°16'0 0.0
2017-Dec-01 18:59N 38°03' W 122°16'0 0.0
2017-Dec-01 18:29N 38°03' W 122°16'0 0.0
2017-Dec-01 17:29N 38°03' W 122°16'0 0.0
2017-Dec-01 16:53N 38°03' W 122°16'0 0.0
2017-Dec-01 16:22N 38°03' W 122°16'0 0.0
2017-Dec-01 15:59N 38°03' W 122°16'0 0.0
2017-Dec-01 15:29N 38°03' W 122°16'0 0.0
2017-Dec-01 14:53N 38°03' W 122°16'0 0.0
2017-Dec-01 14:29N 38°03' W 122°16'0 0.0
2017-Dec-01 13:58N 38°03' W 122°16'0 0.0
2017-Dec-01 13:29N 38°03' W 122°16'0 0.0
2017-Dec-01 12:59N 38°03' W 122°16'0 0.0
2017-Dec-01 12:29N 38°03' W 122°16'0 0.0
2017-Dec-01 11:53N 38°03' W 122°16'0 0.0
2017-Dec-01 11:29N 38°03' W 122°16'0 0.0
2017-Dec-01 10:53N 38°03' W 122°16'0 0.0
2017-Dec-01 10:29N 38°03' W 122°16'0 0.0
2017-Dec-01 09:59N 38°03' W 122°16'0 0.0
2017-Dec-01 09:29N 38°03' W 122°16'0 0.0
2017-Dec-01 08:58N 38°03' W 122°16'0 0.0
2017-Dec-01 08:23N 38°03' W 122°16'0 0.0
2017-Dec-01 07:59N 38°03' W 122°16'0 0.0
2017-Dec-01 07:29N 38°03' W 122°16'0 0.0
2017-Dec-01 06:59N 38°03' W 122°16'0 0.0
2017-Dec-01 06:29N 38°03' W 122°16'0 0.0
2017-Dec-01 05:53N 38°03' W 122°16'0 0.0
2017-Dec-01 05:29N 38°03' W 122°16'0 0.0
2017-Dec-01 04:59N 38°03' W 122°16'0 0.0
2017-Dec-01 04:29N 38°03' W 122°16'0 0.0
2017-Dec-01 03:59N 38°03' W 122°16'0 0.0
2017-Dec-01 03:29N 38°03' W 122°16'0 0.0
2017-Dec-01 02:59N 38°03' W 122°16'0 0.0
2017-Dec-01 02:23N 38°03' W 122°16'0 0.0
2017-Dec-01 01:59N 38°03' W 122°16'0 0.0
2017-Dec-01 01:29N 38°03' W 122°16'0 0.0
2017-Dec-01 00:59N 38°03' W 122°16'0 0.0
2017-Dec-01 00:29N 38°03' W 122°16'0 0.0
2017-Nov-30 23:59N 38°03' W 122°16'0 0.0
2017-Nov-30 20:29N 38°03' W 122°16'0 0.0
2017-Nov-30 19:53N 38°03' W 122°16'0 0.0
2017-Nov-30 19:28N 38°03' W 122°16'0 0.0
2017-Nov-30 18:59N 38°03' W 122°16'0 0.0
2017-Nov-30 18:23N 38°03' W 122°16'0 0.0
2017-Nov-30 17:59N 38°03' W 122°16'0 0.0
2017-Nov-30 17:23N 38°03' W 122°16'0 0.0
2017-Nov-30 16:59N 38°03' W 122°16'0 0.0
2017-Nov-30 16:29N 38°03' W 122°16'0 0.0
2017-Nov-30 07:59N 38°03' W 122°16'0 0.0
2017-Nov-30 07:23N 38°03' W 122°16'0 0.0
2017-Nov-30 06:59N 38°03' W 122°16'0 0.0
2017-Nov-30 05:41N 38°03' W 122°16'0 0.0
2017-Nov-30 05:29N 38°03' W 122°16'0 0.0
2017-Nov-30 04:59N 38°03' W 122°16'0 0.0
2017-Nov-30 04:29N 38°03' W 122°16'0 0.0
2017-Nov-30 03:59N 38°03' W 122°16'0 0.0
2017-Nov-30 03:30N 38°03' W 122°16'2 3.5
2017-Nov-30 03:00N 38°03' W 122°18'4 8.3
2017-Nov-30 02:30N 38°02' W 122°23'4 8.7
2017-Nov-30 02:00N 37°58' W 122°26'5 9.4
2017-Nov-30 01:30N 37°54' W 122°26'611.2
2017-Nov-30 01:01N 37°49' W 122°23'4 8.7
2017-Nov-30 00:30N 37°45' W 122°20'0 0.2
2017-Nov-29 23:58N 37°45' W 122°20'0 0.3
2017-Nov-29 23:28N 37°45' W 122°20'0 0.1
2017-Nov-29 22:58N 37°45' W 122°20'0 0.0
2017-Nov-29 22:28N 37°45' W 122°20'0 0.0
2017-Nov-29 21:58N 37°45' W 122°20'0 0.0
2017-Nov-29 21:28N 37°45' W 122°20'0 0.1
2017-Nov-29 20:58N 37°45' W 122°20'0 0.0
2017-Nov-29 20:28N 37°45' W 122°20'0 0.0
2017-Nov-29 19:55N 37°45' W 122°20'0 0.0
2017-Nov-29 19:28N 37°45' W 122°20'0 0.1
2017-Nov-29 18:58N 37°45' W 122°20'0 0.0
2017-Nov-29 18:28N 37°45' W 122°20'0 0.0
2017-Nov-29 17:58N 37°45' W 122°20'0 0.1
2017-Nov-29 17:28N 37°45' W 122°20'0 0.1
2017-Nov-29 16:58N 37°45' W 122°20'0 0.2
2017-Nov-29 16:28N 37°45' W 122°20'0 0.2
2017-Nov-29 15:58N 37°45' W 122°20'0 0.0
2017-Nov-29 15:28N 37°45' W 122°20'0 0.0
2017-Nov-29 14:58N 37°45' W 122°20'0 0.0
2017-Nov-29 14:28N 37°45' W 122°20'0 0.0
2017-Nov-29 13:58N 37°45' W 122°20'0 0.0
2017-Nov-29 13:28N 37°45' W 122°20'0 0.0
2017-Nov-29 12:58N 37°45' W 122°20'0 0.0
2017-Nov-29 12:28N 37°45' W 122°20'0 0.0
2017-Nov-29 11:58N 37°45' W 122°20'0 0.0
2017-Nov-29 11:28N 37°45' W 122°20'0 0.1
2017-Nov-29 10:58N 37°45' W 122°20'0 0.1
2017-Nov-29 10:28N 37°45' W 122°20'0 0.2
2017-Nov-29 09:58N 37°45' W 122°20'0 0.1
2017-Nov-29 09:28N 37°45' W 122°20'0 0.0
2017-Nov-29 08:58N 37°45' W 122°20'0 0.0
2017-Nov-29 08:28N 37°45' W 122°20'0 0.0
2017-Nov-29 07:58N 37°45' W 122°20'0 0.0
2017-Nov-29 07:28N 37°45' W 122°20'0 0.0
2017-Nov-29 06:58N 37°45' W 122°20'0 0.0
2017-Nov-29 06:28N 37°45' W 122°20'0 0.0
2017-Nov-29 05:58N 37°45' W 122°20'0 0.2
2017-Nov-29 05:28N 37°45' W 122°20'0 0.2
2017-Nov-29 04:58N 37°45' W 122°20'0 0.0
2017-Nov-29 04:28N 37°45' W 122°20'0 0.1
2017-Nov-29 03:58N 37°45' W 122°20'0 0.0
2017-Nov-29 03:28N 37°45' W 122°20'0 0.0
2017-Nov-29 02:58N 37°45' W 122°20'0 0.0
2017-Nov-29 02:28N 37°45' W 122°20'0 0.0
2017-Nov-29 01:58N 37°45' W 122°20'0 0.1
2017-Nov-29 01:29N 37°45' W 122°20'0 0.1
2017-Nov-29 01:00N 37°45' W 122°20'0 0.1
2017-Nov-29 00:30N 37°45' W 122°20'0 0.1
2017-Nov-29 00:00N 37°45' W 122°20'0 0.0
2017-Nov-28 23:30N 37°45' W 122°20'0 0.0
2017-Nov-28 23:00N 37°45' W 122°20'1 2.3
2017-Nov-28 22:30N 37°46' W 122°21'611.1
2017-Nov-28 22:00N 37°49' W 122°27'611.0
2017-Nov-28 21:30N 37°47' W 122°33'611.7
2017-Nov-28 21:00N 37°45' W 122°40'4 8.8
2017-Nov-28 20:30N 37°42' W 122°44'5 9.4
2017-Nov-28 20:00N 37°39' W 122°49'510.3
2017-Nov-28 19:30N 37°37' W 122°55'510.3
2017-Nov-28 19:00N 37°34' W 123°00'5 9.1
2017-Nov-28 18:30N 37°31' W 123°05'5 9.7
2017-Nov-28 18:00N 37°27' W 123°08'510.1
2017-Nov-28 17:30N 37°22' W 123°09'510.2
2017-Nov-28 17:00N 37°17' W 123°11'3 6.8
2017-Nov-28 16:30N 37°14' W 123°13'  
2017-Nov-25 09:51N 33°48' W 126°15'412.9
2017-Nov-25 09:30N 33°45' W 126°12'612.9
2017-Nov-25 09:01N 33°40' W 126°06'912.8
2017-Nov-25 08:19N 33°33' W 125°59'512.6
2017-Nov-25 07:57N 33°30' W 125°55'1212.4
2017-Nov-25 07:00N 33°21' W 125°46'612.3
2017-Nov-25 06:30N 33°17' W 125°41'612.0
2017-Nov-25 06:00N 33°12' W 125°36'611.9
2017-Nov-25 05:28N 33°07' W 125°31'612.0
2017-Nov-25 05:00N 33°03' W 125°27'712.0
2017-Nov-25 04:25N 32°58' W 125°21'512.2
2017-Nov-25 04:00N 32°54' W 125°17'612.0
2017-Nov-25 03:31N 32°50' W 125°12'612.0
2017-Nov-25 03:00N 32°45' W 125°07'2412.2
2017-Nov-25 01:02N 32°28' W 124°48'111.8
2017-Nov-25 00:57N 32°27' W 124°47'612.3
2017-Nov-25 00:27N 32°23' W 124°42'1312.2
2017-Nov-24 23:23N 32°13' W 124°32'1912.2
2017-Nov-24 21:49N 31°58' W 124°17'412.5
2017-Nov-24 21:30N 31°55' W 124°15'15112.2
2017-Nov-24 09:07N 29°58' W 122°23'112.6
2017-Nov-24 09:01N 29°57' W 122°22'  
Track history (hours):
 
Tides and Currents Weather Stations Pressure Air Temp Water Temp Dewpoint Dewpoint Depression Visibility Wind Speed Wind Dir Waves Ship Positions

Ridgebury Julia M

Last reported at 2017-Dec-04 08:43 UTC. Time now 2017-Dec-16 09:19 UTC.
Position N 33°03' W 121°51'.
Warning: this ship's position is 12 days out of date.

Length 180 m; draft 10.2 m.

Type: Tanker. MMSI: 538005939.

Date/timePositionNaut miles runAvg speedWind from/ knotsBaromVisibWave heightAir tempDewpointWater temp
2017-Dec-04 08:43N 33°03' W 121°51'412.2
2017-Dec-04 08:25N 33°07' W 121°52'712.1
2017-Dec-04 07:50N 33°14' W 121°54'412.4
2017-Dec-04 07:30N 33°18' W 121°54'612.3
2017-Dec-04 06:59N 33°24' W 121°55'3412.1
2017-Dec-04 04:10N 33°58' W 122°02'412.2
2017-Dec-04 03:53N 34°01' W 122°03'1812.1
2017-Dec-04 02:22N 34°19' W 122°06'412.3
2017-Dec-04 02:00N 34°24' W 122°07'712.4
2017-Dec-04 01:28N 34°30' W 122°09'712.3
2017-Dec-04 00:57N 34°37' W 122°10'512.4
2017-Dec-04 00:30N 34°42' W 122°11'5812.6
2017-Dec-03 19:54N 35°39' W 122°24'613.1
2017-Dec-03 19:28N 35°45' W 122°25'613.0
2017-Dec-03 19:00N 35°51' W 122°26'612.8
2017-Dec-03 18:30N 35°57' W 122°27'612.8
2017-Dec-03 18:00N 36°03' W 122°28'612.9
2017-Dec-03 17:30N 36°10' W 122°30'713.4
2017-Dec-03 17:00N 36°16' W 122°31'713.3
2017-Dec-03 16:30N 36°23' W 122°33'713.3
2017-Dec-03 16:00N 36°29' W 122°34'713.2
2017-Dec-03 15:30N 36°36' W 122°35'713.2
2017-Dec-03 15:00N 36°43' W 122°37'713.3
2017-Dec-03 14:30N 36°49' W 122°38'3713.2
2017-Dec-03 11:42N 37°26' W 122°44'313.3
2017-Dec-03 11:30N 37°28' W 122°44'613.3
2017-Dec-03 11:00N 37°35' W 122°44'611.9
2017-Dec-03 10:29N 37°41' W 122°42'4 7.6
2017-Dec-03 10:00N 37°44' W 122°40'4 8.8
2017-Dec-03 09:30N 37°47' W 122°35'611.8
2017-Dec-03 09:00N 37°49' W 122°28'4 8.3
2017-Dec-03 08:30N 37°53' W 122°25'4 7.0
2017-Dec-03 08:00N 37°56' W 122°27'4 8.0
2017-Dec-03 07:30N 37°60' W 122°25'4 8.1
2017-Dec-03 07:00N 38°02' W 122°21'4 7.2
2017-Dec-03 06:30N 38°03' W 122°17'1 1.6
2017-Dec-03 06:00N 38°03' W 122°16'0 0.0
2017-Dec-03 04:59N 38°03' W 122°16'0 0.0
2017-Dec-03 04:29N 38°03' W 122°16'0 0.0
2017-Dec-03 03:59N 38°03' W 122°16'0 0.0
2017-Dec-03 01:17N 38°03' W 122°16'0 0.0
2017-Dec-02 23:53N 38°03' W 122°16'0 0.0
2017-Dec-02 23:23N 38°03' W 122°16'0 0.0
2017-Dec-02 22:59N 38°03' W 122°16'0 0.0
2017-Dec-02 20:28N 38°03' W 122°16'0 0.0
2017-Dec-02 19:59N 38°03' W 122°16'0 0.0
2017-Dec-02 19:29N 38°03' W 122°16'0 0.0
2017-Dec-02 18:59N 38°03' W 122°16'0 0.0
2017-Dec-02 18:28N 38°03' W 122°16'0 0.0
2017-Dec-02 17:59N 38°03' W 122°16'0 0.0
2017-Dec-02 17:29N 38°03' W 122°16'0 0.0
2017-Dec-02 16:53N 38°03' W 122°16'0 0.0
2017-Dec-02 16:29N 38°03' W 122°16'0 0.0
2017-Dec-02 15:59N 38°03' W 122°16'0 0.0
2017-Dec-02 15:29N 38°03' W 122°16'0 0.0
2017-Dec-02 14:46N 38°03' W 122°16'0 0.0
2017-Dec-02 14:29N 38°03' W 122°16'0 0.0
2017-Dec-02 13:53N 38°03' W 122°16'0 0.0
2017-Dec-02 13:23N 38°03' W 122°16'0 0.0
2017-Dec-02 12:53N 38°03' W 122°16'0 0.0
2017-Dec-02 12:29N 38°03' W 122°16'0 0.0
2017-Dec-02 11:05N 38°03' W 122°16'0 0.0
2017-Dec-02 10:05N 38°03' W 122°16'0 0.0
2017-Dec-02 09:41N 38°03' W 122°16'0 0.0
2017-Dec-02 09:29N 38°03' W 122°16'0 0.0
2017-Dec-02 08:53N 38°03' W 122°16'0 0.0
2017-Dec-02 08:23N 38°03' W 122°16'0 0.0
2017-Dec-02 07:17N 38°03' W 122°16'0 0.0
2017-Dec-02 06:58N 38°03' W 122°16'0 0.0
2017-Dec-02 06:05N 38°03' W 122°16'0 0.0
2017-Dec-02 05:59N 38°03' W 122°16'0 0.0
2017-Dec-02 05:17N 38°03' W 122°16'0 0.0
2017-Dec-02 04:59N 38°03' W 122°16'0 0.0
2017-Dec-02 04:29N 38°03' W 122°16'0 0.0
2017-Dec-02 03:59N 38°03' W 122°16'0 0.0
2017-Dec-02 03:29N 38°03' W 122°16'0 0.0
2017-Dec-02 02:59N 38°03' W 122°16'0 0.0
2017-Dec-02 01:53N 38°03' W 122°16'0 0.0
2017-Dec-02 01:29N 38°03' W 122°16'0 0.0
2017-Dec-02 00:59N 38°03' W 122°16'0 0.0
2017-Dec-01 23:53N 38°03' W 122°16'0 0.0
2017-Dec-01 20:34N 38°03' W 122°16'0 0.0
2017-Dec-01 19:29N 38°03' W 122°16'0 0.0
2017-Dec-01 18:59N 38°03' W 122°16'0 0.0
2017-Dec-01 18:29N 38°03' W 122°16'0 0.0
2017-Dec-01 17:29N 38°03' W 122°16'0 0.0
2017-Dec-01 16:53N 38°03' W 122°16'0 0.0
2017-Dec-01 16:22N 38°03' W 122°16'0 0.0
2017-Dec-01 15:59N 38°03' W 122°16'0 0.0
2017-Dec-01 15:29N 38°03' W 122°16'0 0.0
2017-Dec-01 14:53N 38°03' W 122°16'0 0.0
2017-Dec-01 14:29N 38°03' W 122°16'0 0.0
2017-Dec-01 13:58N 38°03' W 122°16'0 0.0
2017-Dec-01 13:29N 38°03' W 122°16'0 0.0
2017-Dec-01 12:59N 38°03' W 122°16'0 0.0
2017-Dec-01 12:29N 38°03' W 122°16'0 0.0
2017-Dec-01 11:53N 38°03' W 122°16'0 0.0
2017-Dec-01 11:29N 38°03' W 122°16'0 0.0
2017-Dec-01 10:53N 38°03' W 122°16'0 0.0
2017-Dec-01 10:29N 38°03' W 122°16'0 0.0
2017-Dec-01 09:59N 38°03' W 122°16'0 0.0
2017-Dec-01 09:29N 38°03' W 122°16'0 0.0
2017-Dec-01 08:58N 38°03' W 122°16'0 0.0
2017-Dec-01 08:23N 38°03' W 122°16'0 0.0
2017-Dec-01 07:59N 38°03' W 122°16'0 0.0
2017-Dec-01 07:29N 38°03' W 122°16'0 0.0
2017-Dec-01 06:59N 38°03' W 122°16'0 0.0
2017-Dec-01 06:29N 38°03' W 122°16'0 0.0
2017-Dec-01 05:53N 38°03' W 122°16'0 0.0
2017-Dec-01 05:29N 38°03' W 122°16'0 0.0
2017-Dec-01 04:59N 38°03' W 122°16'0 0.0
2017-Dec-01 04:29N 38°03' W 122°16'0 0.0
2017-Dec-01 03:59N 38°03' W 122°16'0 0.0
2017-Dec-01 03:29N 38°03' W 122°16'0 0.0
2017-Dec-01 02:59N 38°03' W 122°16'0 0.0
2017-Dec-01 02:23N 38°03' W 122°16'0 0.0
2017-Dec-01 01:59N 38°03' W 122°16'0 0.0
2017-Dec-01 01:29N 38°03' W 122°16'0 0.0
2017-Dec-01 00:59N 38°03' W 122°16'0 0.0
2017-Dec-01 00:29N 38°03' W 122°16'0 0.0
2017-Nov-30 23:59N 38°03' W 122°16'0 0.0
2017-Nov-30 20:29N 38°03' W 122°16'0 0.0
2017-Nov-30 19:53N 38°03' W 122°16'0 0.0
2017-Nov-30 19:28N 38°03' W 122°16'0 0.0
2017-Nov-30 18:59N 38°03' W 122°16'0 0.0
2017-Nov-30 18:23N 38°03' W 122°16'0 0.0
2017-Nov-30 17:59N 38°03' W 122°16'0 0.0
2017-Nov-30 17:23N 38°03' W 122°16'0 0.0
2017-Nov-30 16:59N 38°03' W 122°16'0 0.0
2017-Nov-30 16:29N 38°03' W 122°16'0 0.0
2017-Nov-30 07:59N 38°03' W 122°16'0 0.0
2017-Nov-30 07:23N 38°03' W 122°16'0 0.0
2017-Nov-30 06:59N 38°03' W 122°16'0 0.0
2017-Nov-30 05:41N 38°03' W 122°16'0 0.0
2017-Nov-30 05:29N 38°03' W 122°16'0 0.0
2017-Nov-30 04:59N 38°03' W 122°16'0 0.0
2017-Nov-30 04:29N 38°03' W 122°16'0 0.0
2017-Nov-30 03:59N 38°03' W 122°16'0 0.0
2017-Nov-30 03:30N 38°03' W 122°16'2 3.5
2017-Nov-30 03:00N 38°03' W 122°18'4 8.3
2017-Nov-30 02:30N 38°02' W 122°23'4 8.7
2017-Nov-30 02:00N 37°58' W 122°26'5 9.4
2017-Nov-30 01:30N 37°54' W 122°26'611.2
2017-Nov-30 01:01N 37°49' W 122°23'4 8.7
2017-Nov-30 00:30N 37°45' W 122°20'0 0.2
2017-Nov-29 23:58N 37°45' W 122°20'0 0.3
2017-Nov-29 23:28N 37°45' W 122°20'0 0.1
2017-Nov-29 22:58N 37°45' W 122°20'0 0.0
2017-Nov-29 22:28N 37°45' W 122°20'0 0.0
2017-Nov-29 21:58N 37°45' W 122°20'0 0.0
2017-Nov-29 21:28N 37°45' W 122°20'0 0.1
2017-Nov-29 20:58N 37°45' W 122°20'0 0.0
2017-Nov-29 20:28N 37°45' W 122°20'0 0.0
2017-Nov-29 19:55N 37°45' W 122°20'0 0.0
2017-Nov-29 19:28N 37°45' W 122°20'0 0.1
2017-Nov-29 18:58N 37°45' W 122°20'0 0.0
2017-Nov-29 18:28N 37°45' W 122°20'0 0.0
2017-Nov-29 17:58N 37°45' W 122°20'0 0.1
2017-Nov-29 17:28N 37°45' W 122°20'0 0.1
2017-Nov-29 16:58N 37°45' W 122°20'0 0.2
2017-Nov-29 16:28N 37°45' W 122°20'0 0.2
2017-Nov-29 15:58N 37°45' W 122°20'0 0.0
2017-Nov-29 15:28N 37°45' W 122°20'0 0.0
2017-Nov-29 14:58N 37°45' W 122°20'0 0.0
2017-Nov-29 14:28N 37°45' W 122°20'0 0.0
2017-Nov-29 13:58N 37°45' W 122°20'0 0.0
2017-Nov-29 13:28N 37°45' W 122°20'0 0.0
2017-Nov-29 12:58N 37°45' W 122°20'0 0.0
2017-Nov-29 12:28N 37°45' W 122°20'0 0.0
2017-Nov-29 11:58N 37°45' W 122°20'0 0.0
2017-Nov-29 11:28N 37°45' W 122°20'0 0.1
2017-Nov-29 10:58N 37°45' W 122°20'0 0.1
2017-Nov-29 10:28N 37°45' W 122°20'0 0.2
2017-Nov-29 09:58N 37°45' W 122°20'0 0.1
2017-Nov-29 09:28N 37°45' W 122°20'0 0.0
2017-Nov-29 08:58N 37°45' W 122°20'0 0.0
2017-Nov-29 08:28N 37°45' W 122°20'0 0.0
2017-Nov-29 07:58N 37°45' W 122°20'0 0.0
2017-Nov-29 07:28N 37°45' W 122°20'0 0.0
2017-Nov-29 06:58N 37°45' W 122°20'0 0.0
2017-Nov-29 06:28N 37°45' W 122°20'0 0.0
2017-Nov-29 05:58N 37°45' W 122°20'0 0.2
2017-Nov-29 05:28N 37°45' W 122°20'0 0.2
2017-Nov-29 04:58N 37°45' W 122°20'0 0.0
2017-Nov-29 04:28N 37°45' W 122°20'0 0.1
2017-Nov-29 03:58N 37°45' W 122°20'0 0.0
2017-Nov-29 03:28N 37°45' W 122°20'0 0.0
2017-Nov-29 02:58N 37°45' W 122°20'0 0.0
2017-Nov-29 02:28N 37°45' W 122°20'0 0.0
2017-Nov-29 01:58N 37°45' W 122°20'0 0.1
2017-Nov-29 01:29N 37°45' W 122°20'0 0.1
2017-Nov-29 01:00N 37°45' W 122°20'0 0.1
2017-Nov-29 00:30N 37°45' W 122°20'0 0.1
2017-Nov-29 00:00N 37°45' W 122°20'0 0.0
2017-Nov-28 23:30N 37°45' W 122°20'0 0.0
2017-Nov-28 23:00N 37°45' W 122°20'1 2.3
2017-Nov-28 22:30N 37°46' W 122°21'611.1
2017-Nov-28 22:00N 37°49' W 122°27'611.0
2017-Nov-28 21:30N 37°47' W 122°33'611.7
2017-Nov-28 21:00N 37°45' W 122°40'4 8.8
2017-Nov-28 20:30N 37°42' W 122°44'5 9.4
2017-Nov-28 20:00N 37°39' W 122°49'510.3
2017-Nov-28 19:30N 37°37' W 122°55'510.3
2017-Nov-28 19:00N 37°34' W 123°00'5 9.1
2017-Nov-28 18:30N 37°31' W 123°05'5 9.7
2017-Nov-28 18:00N 37°27' W 123°08'510.1
2017-Nov-28 17:30N 37°22' W 123°09'510.2
2017-Nov-28 17:00N 37°17' W 123°11'3 6.8
2017-Nov-28 16:30N 37°14' W 123°13'  
2017-Nov-25 09:51N 33°48' W 126°15'412.9
2017-Nov-25 09:30N 33°45' W 126°12'612.9
2017-Nov-25 09:01N 33°40' W 126°06'912.8
2017-Nov-25 08:19N 33°33' W 125°59'512.6
2017-Nov-25 07:57N 33°30' W 125°55'1212.4
2017-Nov-25 07:00N 33°21' W 125°46'612.3
2017-Nov-25 06:30N 33°17' W 125°41'612.0
2017-Nov-25 06:00N 33°12' W 125°36'611.9
2017-Nov-25 05:28N 33°07' W 125°31'612.0
2017-Nov-25 05:00N 33°03' W 125°27'712.0
2017-Nov-25 04:25N 32°58' W 125°21'512.2
2017-Nov-25 04:00N 32°54' W 125°17'612.0
2017-Nov-25 03:31N 32°50' W 125°12'612.0
2017-Nov-25 03:00N 32°45' W 125°07'2412.2
2017-Nov-25 01:02N 32°28' W 124°48'111.8
2017-Nov-25 00:57N 32°27' W 124°47'612.3
2017-Nov-25 00:27N 32°23' W 124°42'1312.2
2017-Nov-24 23:23N 32°13' W 124°32'1912.2
2017-Nov-24 21:49N 31°58' W 124°17'412.5
2017-Nov-24 21:30N 31°55' W 124°15'15112.2
2017-Nov-24 09:07N 29°58' W 122°23'112.6
2017-Nov-24 09:01N 29°57' W 122°22'  

Dump ship's entire track history